createdAt,value
2024-05-09T00:00:22.315Z,60.5712
2024-05-09T00:01:18.970Z,60.5730
2024-05-09T00:02:21.490Z,60.5629
2024-05-09T00:03:24.061Z,60.5431
2024-05-09T00:04:26.635Z,60.5365
2024-05-09T00:05:29.365Z,60.5302
2024-05-09T00:06:31.867Z,60.5222
2024-05-09T00:07:34.368Z,60.5000
2024-05-09T00:08:37.219Z,60.5062
2024-05-09T00:09:39.522Z,60.5071
2024-05-09T00:10:42.206Z,60.5072
2024-05-09T00:11:44.733Z,60.5235
2024-05-09T00:12:47.317Z,60.5093
2024-05-09T00:13:49.872Z,60.5016
2024-05-09T00:14:52.634Z,60.4924
2024-05-09T00:15:55.010Z,60.4806
2024-05-09T00:16:57.649Z,60.4938
2024-05-09T00:18:00.402Z,60.4814
2024-05-09T00:19:02.857Z,60.4856
2024-05-09T00:20:14.245Z,60.4929
2024-05-09T00:21:07.978Z,60.4949
2024-05-09T00:22:10.522Z,60.4970
2024-05-09T00:23:13.723Z,60.4780
2024-05-09T00:24:15.685Z,60.4646
2024-05-09T00:25:18.296Z,60.4633
2024-05-09T00:26:20.911Z,60.4655
2024-05-09T00:27:23.466Z,60.4596
2024-05-09T00:28:26.048Z,60.4645
2024-05-09T00:29:28.710Z,60.4528
2024-05-09T00:30:34.979Z,60.4575
2024-05-09T00:31:33.767Z,60.4496
2024-05-09T00:32:36.605Z,60.4570
2024-05-09T00:33:39.139Z,60.4584
2024-05-09T00:34:41.512Z,60.4354
2024-05-09T00:35:44.101Z,60.4462
2024-05-09T00:36:46.679Z,60.4372
2024-05-09T00:37:49.254Z,60.4356
2024-05-09T00:38:51.815Z,60.4029
2024-05-09T00:39:54.415Z,60.3954
2024-05-09T00:40:57.038Z,60.4161
2024-05-09T00:41:59.583Z,60.4482
2024-05-09T00:43:02.148Z,60.4172
2024-05-09T00:44:04.769Z,60.4238
2024-05-09T00:45:07.306Z,60.4185
2024-05-09T00:46:09.923Z,60.4216
2024-05-09T00:47:12.555Z,60.4140
2024-05-09T00:48:17.721Z,60.4038
2024-05-09T00:49:17.794Z,60.4154
2024-05-09T00:50:29.354Z,60.4283
2024-05-09T00:51:22.866Z,60.4292
2024-05-09T00:52:25.406Z,60.4354
2024-05-09T00:53:28.055Z,60.4243
2024-05-09T00:54:30.551Z,60.4217
2024-05-09T00:55:33.171Z,60.4193
2024-05-09T00:56:35.807Z,60.4029
2024-05-09T00:57:38.300Z,60.4001
2024-05-09T00:58:40.894Z,60.4023
2024-05-09T00:59:43.466Z,60.3910
2024-05-09T01:00:46.162Z,60.3829
2024-05-09T01:01:48.774Z,60.3625
2024-05-09T01:02:51.304Z,60.3673
2024-05-09T01:03:54.054Z,60.3756
2024-05-09T01:04:56.463Z,60.3871
2024-05-09T01:05:59.074Z,60.3765
2024-05-09T01:07:01.600Z,60.3759
2024-05-09T01:08:04.212Z,60.3921
2024-05-09T01:09:06.748Z,60.3871
2024-05-09T01:10:14.039Z,60.3818
2024-05-09T01:11:11.966Z,60.3813
2024-05-09T01:12:14.680Z,60.3889
2024-05-09T01:13:17.127Z,60.3814
2024-05-09T01:14:19.690Z,60.3467
2024-05-09T01:15:22.207Z,60.3304
2024-05-09T01:16:24.799Z,60.3464
2024-05-09T01:17:27.512Z,60.3514
2024-05-09T01:18:30.089Z,60.3397
2024-05-09T01:19:32.833Z,60.3364
2024-05-09T01:20:41.514Z,60.3168
2024-05-09T01:21:37.717Z,60.3433
2024-05-09T01:22:40.300Z,60.3413
2024-05-09T01:23:42.977Z,60.3341
2024-05-09T01:24:45.452Z,60.3187
2024-05-09T01:25:48.090Z,60.3519
2024-05-09T01:26:50.621Z,60.3501
2024-05-09T01:27:53.207Z,60.3555
2024-05-09T01:28:55.830Z,60.3555
2024-05-09T01:29:58.368Z,60.3573
2024-05-09T01:31:01.007Z,60.3516
2024-05-09T01:32:03.637Z,60.3404
2024-05-09T01:33:07.967Z,60.3479
2024-05-09T01:34:08.806Z,60.3237
2024-05-09T01:35:11.391Z,60.3144
2024-05-09T01:36:13.946Z,60.3158
2024-05-09T01:37:16.559Z,60.3134
2024-05-09T01:38:19.136Z,60.3084
2024-05-09T01:39:21.705Z,60.3102
2024-05-09T01:40:33.489Z,60.3175
2024-05-09T01:41:26.946Z,60.3340
2024-05-09T01:42:29.453Z,60.3272
2024-05-09T01:43:32.051Z,60.3283
2024-05-09T01:44:34.692Z,60.3180
2024-05-09T01:45:37.207Z,60.3311
2024-05-09T01:46:39.821Z,60.3250
2024-05-09T01:47:42.693Z,60.3281
2024-05-09T01:48:45.028Z,60.3483
2024-05-09T01:49:47.637Z,60.3490
2024-05-09T01:50:50.156Z,60.3391
2024-05-09T01:51:52.716Z,60.3137
2024-05-09T01:52:55.338Z,60.3237
2024-05-09T01:53:57.905Z,60.3259
2024-05-09T01:55:03.524Z,60.3264
2024-05-09T01:56:03.166Z,60.3301
2024-05-09T01:57:05.704Z,60.3319
2024-05-09T01:58:08.210Z,60.3222
2024-05-09T01:59:10.857Z,60.3118
2024-05-09T02:00:18.798Z,60.3316
2024-05-09T02:01:16.027Z,60.3587
2024-05-09T02:02:18.701Z,60.3518
2024-05-09T02:03:21.472Z,60.3263
2024-05-09T02:04:23.941Z,60.3275
2024-05-09T02:05:26.353Z,60.3380
2024-05-09T02:06:28.908Z,60.3390
2024-05-09T02:07:31.497Z,60.3305
2024-05-09T02:08:34.222Z,60.3307
2024-05-09T02:09:36.694Z,60.3357
2024-05-09T02:10:39.270Z,60.3364
2024-05-09T02:11:41.951Z,60.3409
2024-05-09T02:12:44.423Z,60.3346
2024-05-09T02:13:47.017Z,60.3419
2024-05-09T02:14:49.714Z,60.3309
2024-05-09T02:15:52.262Z,60.3354
2024-05-09T02:16:54.831Z,60.3353
2024-05-09T02:17:57.479Z,60.3209
2024-05-09T02:19:00.013Z,60.3217
2024-05-09T02:20:02.765Z,60.3186
2024-05-09T02:21:05.256Z,60.3315
2024-05-09T02:22:07.681Z,60.3449
2024-05-09T02:23:10.368Z,60.3316
2024-05-09T02:24:12.861Z,60.3280
2024-05-09T02:25:15.557Z,60.3350
2024-05-09T02:26:18.132Z,60.3194
2024-05-09T02:27:20.631Z,60.3450
2024-05-09T02:28:23.301Z,60.3353
2024-05-09T02:29:25.916Z,60.3347
2024-05-09T02:30:36.373Z,60.3364
2024-05-09T02:31:30.958Z,60.3398
2024-05-09T02:32:33.696Z,60.3245
2024-05-09T02:33:36.479Z,60.3166
2024-05-09T02:34:38.848Z,60.3486
2024-05-09T02:35:41.455Z,60.3396
2024-05-09T02:36:43.873Z,60.3341
2024-05-09T02:37:46.664Z,60.3497
2024-05-09T02:38:49.043Z,60.3488
2024-05-09T02:39:51.625Z,60.3432
2024-05-09T02:40:54.234Z,60.3437
2024-05-09T02:41:56.793Z,60.3449
2024-05-09T02:42:59.438Z,60.3572
2024-05-09T02:44:02.021Z,60.3412
2024-05-09T02:45:04.536Z,60.3488
2024-05-09T02:46:07.161Z,60.3474
2024-05-09T02:47:09.843Z,60.3392
2024-05-09T02:48:13.379Z,60.3441
2024-05-09T02:49:14.925Z,60.3516
2024-05-09T02:50:25.998Z,60.3440
2024-05-09T02:51:20.104Z,60.3425
2024-05-09T02:52:22.620Z,60.3507
2024-05-09T02:53:25.270Z,60.3532
2024-05-09T02:54:27.819Z,60.3510
2024-05-09T02:55:30.382Z,60.3512
2024-05-09T02:56:33.027Z,60.3321
2024-05-09T02:57:35.534Z,60.3391
2024-05-09T02:58:38.164Z,60.3488
2024-05-09T02:59:40.720Z,60.3438
2024-05-09T03:00:43.434Z,60.3424
2024-05-09T03:01:46.064Z,60.3348
2024-05-09T03:02:48.619Z,60.3126
2024-05-09T03:03:51.180Z,60.3135
2024-05-09T03:04:53.764Z,60.3184
2024-05-09T03:05:56.387Z,60.3092
2024-05-09T03:06:58.843Z,60.2921
2024-05-09T03:08:01.532Z,60.2994
2024-05-09T03:09:04.000Z,60.3032
2024-05-09T03:10:12.218Z,60.3072
2024-05-09T03:11:09.248Z,60.3187
2024-05-09T03:12:12.015Z,60.3345
2024-05-09T03:13:15.606Z,60.3411
2024-05-09T03:14:17.013Z,60.3369
2024-05-09T03:15:19.478Z,60.3435
2024-05-09T03:16:22.047Z,60.3423
2024-05-09T03:17:24.921Z,60.3485
2024-05-09T03:18:27.380Z,60.3352
2024-05-09T03:19:29.886Z,60.3382
2024-05-09T03:20:34.757Z,60.3338
2024-05-09T03:21:34.994Z,60.3449
2024-05-09T03:22:37.555Z,60.3464
2024-05-09T03:23:40.232Z,60.3333
2024-05-09T03:24:42.728Z,60.3436
2024-05-09T03:25:45.394Z,60.3427
2024-05-09T03:26:47.902Z,60.3370
2024-05-09T03:27:50.484Z,60.3283
2024-05-09T03:28:53.136Z,60.3211
2024-05-09T03:29:55.657Z,60.3207
2024-05-09T03:30:58.234Z,60.3178
2024-05-09T03:32:00.954Z,60.3253
2024-05-09T03:33:03.625Z,60.3179
2024-05-09T03:34:06.183Z,60.3235
2024-05-09T03:35:08.625Z,60.3212
2024-05-09T03:36:11.537Z,60.3344
2024-05-09T03:37:13.784Z,60.3244
2024-05-09T03:38:16.572Z,60.3184
2024-05-09T03:39:18.927Z,60.3304
2024-05-09T03:40:26.358Z,60.3210
2024-05-09T03:41:24.159Z,60.3164
2024-05-09T03:42:26.685Z,60.3159
2024-05-09T03:43:29.253Z,60.3250
2024-05-09T03:44:31.928Z,60.3139
2024-05-09T03:45:34.452Z,60.3072
2024-05-09T03:46:37.034Z,60.3103
2024-05-09T03:47:39.782Z,60.3108
2024-05-09T03:48:42.308Z,60.3186
2024-05-09T03:49:44.862Z,60.3126
2024-05-09T03:50:47.474Z,60.3156
2024-05-09T03:51:49.939Z,60.3250
2024-05-09T03:52:52.655Z,60.3283
2024-05-09T03:53:55.177Z,60.3270
2024-05-09T03:54:57.736Z,60.3090
2024-05-09T03:56:00.394Z,60.3172
2024-05-09T03:57:02.877Z,60.3205
2024-05-09T03:58:05.455Z,60.3091
2024-05-09T03:59:08.089Z,60.3260
2024-05-09T04:00:17.824Z,60.3379
2024-05-09T04:01:13.252Z,60.3444
2024-05-09T04:02:15.864Z,60.3426
2024-05-09T04:03:18.758Z,60.3264
2024-05-09T04:04:21.090Z,60.3383
2024-05-09T04:05:23.562Z,60.3432
2024-05-09T04:06:26.176Z,60.3364
2024-05-09T04:07:28.773Z,60.3485
2024-05-09T04:08:31.367Z,60.3495
2024-05-09T04:09:33.903Z,60.3493
2024-05-09T04:10:36.472Z,60.3540
2024-05-09T04:11:39.156Z,60.3505
2024-05-09T04:12:41.666Z,60.3448
2024-05-09T04:13:44.261Z,60.3353
2024-05-09T04:14:46.823Z,60.3373
2024-05-09T04:15:49.406Z,60.3320
2024-05-09T04:16:52.076Z,60.3329
2024-05-09T04:17:54.922Z,60.3216
2024-05-09T04:18:57.270Z,60.3270
2024-05-09T04:19:59.787Z,60.3354
2024-05-09T04:21:02.501Z,60.3262
2024-05-09T04:22:04.912Z,60.3100
2024-05-09T04:23:08.603Z,60.3323
2024-05-09T04:24:10.066Z,60.3375
2024-05-09T04:25:12.683Z,60.3395
2024-05-09T04:26:15.266Z,60.3377
2024-05-09T04:27:17.871Z,60.3455
2024-05-09T04:28:20.400Z,60.3763
2024-05-09T04:29:23.041Z,60.3687
2024-05-09T04:30:34.035Z,60.3750
2024-05-09T04:31:28.166Z,60.3837
2024-05-09T04:32:30.954Z,60.3827
2024-05-09T04:33:33.575Z,60.3884
2024-05-09T04:34:36.031Z,60.3907
2024-05-09T04:35:38.913Z,60.3885
2024-05-09T04:36:43.861Z,60.3831
2024-05-09T04:37:43.762Z,60.3863
2024-05-09T04:38:46.310Z,60.3969
2024-05-09T04:39:48.843Z,60.3835
2024-05-09T04:40:51.529Z,60.3860
2024-05-09T04:41:54.018Z,60.3662
2024-05-09T04:42:56.610Z,60.3499
2024-05-09T04:43:59.206Z,60.3460
2024-05-09T04:45:01.764Z,60.3372
2024-05-09T04:46:04.345Z,60.3384
2024-05-09T04:47:06.984Z,60.3427
2024-05-09T04:48:09.806Z,60.3422
2024-05-09T04:49:12.214Z,60.3418
2024-05-09T04:50:20.987Z,60.3338
2024-05-09T04:51:17.323Z,60.3524
2024-05-09T04:52:19.889Z,60.3613
2024-05-09T04:53:22.512Z,60.3523
2024-05-09T04:54:33.809Z,60.3491
2024-05-09T04:55:27.677Z,60.3481
2024-05-09T04:56:30.234Z,60.3509
2024-05-09T04:57:32.785Z,60.3561
2024-05-09T04:58:35.371Z,60.3565
2024-05-09T04:59:38.018Z,60.3549
2024-05-09T05:00:41.326Z,60.3558
2024-05-09T05:01:43.118Z,60.3549
2024-05-09T05:02:45.784Z,60.3515
2024-05-09T05:03:48.420Z,60.3460
2024-05-09T05:04:51.021Z,60.3480
2024-05-09T05:05:53.512Z,60.3388
2024-05-09T05:06:57.779Z,60.3427
2024-05-09T05:07:58.695Z,60.3335
2024-05-09T05:09:01.245Z,60.3330
2024-05-09T05:10:05.749Z,60.3440
2024-05-09T05:11:06.447Z,60.3334
2024-05-09T05:12:09.165Z,60.3243
2024-05-09T05:13:11.577Z,60.3191
2024-05-09T05:14:14.180Z,60.3239
2024-05-09T05:15:16.732Z,60.3404
2024-05-09T05:16:19.322Z,60.3579
2024-05-09T05:17:22.010Z,60.3502
2024-05-09T05:18:24.650Z,60.3428
2024-05-09T05:19:27.299Z,60.3624
2024-05-09T05:20:33.593Z,60.3548
2024-05-09T05:21:32.334Z,60.3542
2024-05-09T05:22:34.870Z,60.3719
2024-05-09T05:23:37.505Z,60.3801
2024-05-09T05:24:39.991Z,60.3691
2024-05-09T05:25:42.585Z,60.3665
2024-05-09T05:26:45.193Z,60.3543
2024-05-09T05:27:47.743Z,60.3622
2024-05-09T05:28:50.377Z,60.3668
2024-05-09T05:29:52.941Z,60.3658
2024-05-09T05:30:55.522Z,60.3592
2024-05-09T05:31:58.210Z,60.3822
2024-05-09T05:33:01.001Z,60.3876
2024-05-09T05:34:03.355Z,60.3815
2024-05-09T05:35:05.913Z,60.3834
2024-05-09T05:36:08.466Z,60.3862
2024-05-09T05:37:11.008Z,60.3894
2024-05-09T05:38:13.657Z,60.3802
2024-05-09T05:39:16.249Z,60.3613
2024-05-09T05:40:28.014Z,60.3772
2024-05-09T05:41:21.432Z,60.4022
2024-05-09T05:42:24.004Z,60.4145
2024-05-09T05:43:26.591Z,60.4208
2024-05-09T05:44:29.306Z,60.4205
2024-05-09T05:45:31.757Z,60.4096
2024-05-09T05:46:34.359Z,60.4326
2024-05-09T05:47:37.043Z,60.4231
2024-05-09T05:48:39.795Z,60.4350
2024-05-09T05:49:42.139Z,60.4350
2024-05-09T05:50:44.779Z,60.4353
2024-05-09T05:51:47.314Z,60.4247
2024-05-09T05:52:49.882Z,60.4172
2024-05-09T05:53:52.459Z,60.4125
2024-05-09T05:54:55.048Z,60.4104
2024-05-09T05:55:57.682Z,60.4324
2024-05-09T05:57:00.216Z,60.4513
2024-05-09T05:58:02.875Z,60.4486
2024-05-09T05:59:05.417Z,60.4618
2024-05-09T06:00:09.782Z,60.4495
2024-05-09T06:01:10.562Z,60.4438
2024-05-09T06:02:13.230Z,60.4512
2024-05-09T06:03:15.838Z,60.4518
2024-05-09T06:04:18.455Z,60.4595
2024-05-09T06:05:20.898Z,60.4749
2024-05-09T06:06:23.469Z,60.4814
2024-05-09T06:07:26.031Z,60.4924
2024-05-09T06:08:30.532Z,60.4949
2024-05-09T06:09:31.276Z,60.4906
2024-05-09T06:10:38.868Z,60.5038
2024-05-09T06:11:36.434Z,60.5066
2024-05-09T06:12:38.969Z,60.5051
2024-05-09T06:13:41.537Z,60.4910
2024-05-09T06:14:44.123Z,60.4710
2024-05-09T06:15:46.720Z,60.4787
2024-05-09T06:16:49.337Z,60.4831
2024-05-09T06:17:51.999Z,60.4837
2024-05-09T06:18:54.688Z,60.4973
2024-05-09T06:19:57.074Z,60.4877
2024-05-09T06:20:59.679Z,60.4706
2024-05-09T06:22:02.218Z,60.4760
2024-05-09T06:23:05.062Z,60.4738
2024-05-09T06:24:07.384Z,60.4629
2024-05-09T06:25:09.983Z,60.4577
2024-05-09T06:26:12.583Z,60.4647
2024-05-09T06:27:15.146Z,60.4801
2024-05-09T06:28:17.710Z,60.4733
2024-05-09T06:29:20.341Z,60.4920
2024-05-09T06:30:30.277Z,60.4752
2024-05-09T06:31:25.476Z,60.4743
2024-05-09T06:32:28.237Z,60.4489
2024-05-09T06:33:30.853Z,60.4467
2024-05-09T06:34:33.387Z,60.4663
2024-05-09T06:35:36.114Z,60.4544
2024-05-09T06:36:38.514Z,60.4363
2024-05-09T06:37:40.968Z,60.4220
2024-05-09T06:38:43.566Z,60.4108
2024-05-09T06:39:46.136Z,60.3919
2024-05-09T06:40:48.783Z,60.3934
2024-05-09T06:41:51.317Z,60.3963
2024-05-09T06:42:53.881Z,60.4114
2024-05-09T06:43:56.513Z,60.4072
2024-05-09T06:44:59.072Z,60.3718
2024-05-09T06:46:01.663Z,60.3806
2024-05-09T06:47:04.324Z,60.3877
2024-05-09T06:48:07.080Z,60.3931
2024-05-09T06:49:09.560Z,60.3997
2024-05-09T06:50:20.217Z,60.3836
2024-05-09T06:51:14.729Z,60.3990
2024-05-09T06:52:17.157Z,60.3921
2024-05-09T06:53:19.755Z,60.3663
2024-05-09T06:54:22.331Z,60.3550
2024-05-09T06:55:24.891Z,60.3288
2024-05-09T06:56:27.518Z,60.3121
2024-05-09T06:57:30.075Z,60.3119
2024-05-09T06:58:32.649Z,60.2973
2024-05-09T06:59:35.380Z,60.2658
2024-05-09T07:00:40.340Z,60.2614
2024-05-09T07:01:40.483Z,60.2458
2024-05-09T07:02:43.116Z,60.2314
2024-05-09T07:03:45.733Z,60.2199
2024-05-09T07:04:48.244Z,60.2159
2024-05-09T07:05:50.757Z,60.2079
2024-05-09T07:06:53.370Z,60.2002
2024-05-09T07:07:55.916Z,60.2055
2024-05-09T07:08:58.527Z,60.1890
2024-05-09T07:10:01.086Z,60.2179
2024-05-09T07:11:03.809Z,60.2075
2024-05-09T07:12:06.373Z,60.1993
2024-05-09T07:13:08.823Z,60.1833
2024-05-09T07:14:11.495Z,60.1909
2024-05-09T07:15:13.984Z,60.1873
2024-05-09T07:16:16.625Z,60.1630
2024-05-09T07:17:19.269Z,60.1531
2024-05-09T07:18:21.941Z,60.1521
2024-05-09T07:19:24.576Z,60.1355
2024-05-09T07:20:34.085Z,60.1270
2024-05-09T07:21:29.485Z,60.1563
2024-05-09T07:22:32.064Z,60.1686
2024-05-09T07:23:34.815Z,60.1593
2024-05-09T07:24:37.240Z,60.1580
2024-05-09T07:25:39.832Z,60.1192
2024-05-09T07:26:42.463Z,60.0924
2024-05-09T07:27:44.972Z,60.0834
2024-05-09T07:28:47.618Z,60.0996
2024-05-09T07:29:50.134Z,60.1245
2024-05-09T07:30:52.729Z,60.1429
2024-05-09T07:31:55.343Z,60.1542
2024-05-09T07:32:58.115Z,60.1503
2024-05-09T07:34:00.705Z,60.1507
2024-05-09T07:35:03.182Z,60.1765
2024-05-09T07:36:05.657Z,60.1943
2024-05-09T07:37:08.262Z,60.1931
2024-05-09T07:38:10.862Z,60.1754
2024-05-09T07:39:13.367Z,60.1798
2024-05-09T07:40:24.882Z,60.1693
2024-05-09T07:41:18.594Z,60.1823
2024-05-09T07:42:21.126Z,60.1954
2024-05-09T07:43:23.743Z,60.1802
2024-05-09T07:44:26.285Z,60.1744
2024-05-09T07:45:45.219Z,60.1703
2024-05-09T07:47:37.114Z,60.1383
2024-05-09T07:50:34.437Z,60.1506
2024-05-09T07:53:14.438Z,60.1955
2024-05-09T07:53:34.619Z,60.2064
2024-05-09T07:53:52.382Z,60.1966
2024-05-09T07:54:52.293Z,60.1972
2024-05-09T07:55:55.248Z,60.1755
2024-05-09T07:56:57.564Z,60.1621
2024-05-09T07:57:59.914Z,60.1632
2024-05-09T07:59:02.457Z,60.1585
2024-05-09T08:00:06.655Z,60.1603
2024-05-09T08:01:07.715Z,60.1167
2024-05-09T08:02:10.374Z,60.0968
2024-05-09T08:03:12.859Z,60.1010
2024-05-09T08:04:15.469Z,60.0928
2024-05-09T08:05:18.102Z,60.0700
2024-05-09T08:06:20.538Z,60.0380
2024-05-09T08:07:23.192Z,60.0334
2024-05-09T08:08:25.722Z,60.0151
2024-05-09T08:09:28.339Z,60.0112
2024-05-09T08:10:30.960Z,60.0468
2024-05-09T08:11:33.504Z,60.0499
2024-05-09T08:12:36.099Z,60.0569
2024-05-09T08:13:38.725Z,60.0557
2024-05-09T08:14:41.213Z,60.0947
2024-05-09T08:15:43.896Z,60.1012
2024-05-09T08:16:46.390Z,59.9725
2024-05-09T08:17:49.063Z,59.9739
2024-05-09T08:18:51.671Z,60.0567
2024-05-09T08:19:54.136Z,59.9119
2024-05-09T08:20:56.719Z,59.8286
2024-05-09T08:21:59.341Z,59.7674
2024-05-09T08:23:01.887Z,59.6390
2024-05-09T08:24:04.485Z,59.6113
2024-05-09T08:25:07.076Z,59.6315
2024-05-09T08:26:09.639Z,59.4765
2024-05-09T08:27:12.242Z,59.4585
2024-05-09T08:28:14.852Z,59.3914
2024-05-09T08:29:17.407Z,59.3877
2024-05-09T08:30:25.304Z,59.4068
2024-05-09T08:31:22.792Z,59.4653
2024-05-09T08:32:25.185Z,59.2796
2024-05-09T08:33:27.835Z,59.3022
2024-05-09T08:34:30.358Z,59.2857
2024-05-09T08:35:32.934Z,59.2835
2024-05-09T08:36:35.513Z,59.1610
2024-05-09T08:37:40.483Z,59.2283
2024-05-09T08:38:40.656Z,59.1709
2024-05-09T08:39:43.258Z,59.1871
2024-05-09T08:40:45.898Z,59.2648
2024-05-09T08:41:48.398Z,59.2880
2024-05-09T08:42:51.003Z,59.2028
2024-05-09T08:43:53.562Z,59.1105
2024-05-09T08:44:56.133Z,59.1008
2024-05-09T08:45:58.766Z,59.2598
2024-05-09T08:47:01.385Z,59.3369
2024-05-09T08:48:04.070Z,59.3654
2024-05-09T08:49:06.642Z,59.3679
2024-05-09T08:50:13.783Z,59.5058
2024-05-09T08:51:11.641Z,59.5576
2024-05-09T08:52:14.229Z,59.5951
2024-05-09T08:53:16.822Z,59.6166
2024-05-09T08:54:19.395Z,59.6081
2024-05-09T08:55:21.994Z,59.6738
2024-05-09T08:56:24.600Z,59.6143
2024-05-09T08:57:27.228Z,59.6628
2024-05-09T08:58:29.721Z,59.7590
2024-05-09T08:59:32.340Z,59.7709
2024-05-09T09:00:37.310Z,59.7559
2024-05-09T09:01:38.136Z,59.7638
2024-05-09T09:02:40.250Z,59.7910
2024-05-09T09:03:42.848Z,59.8036
2024-05-09T09:04:45.295Z,59.8208
2024-05-09T09:05:47.839Z,59.8408
2024-05-09T09:06:51.453Z,59.8326
2024-05-09T09:07:52.975Z,59.8504
2024-05-09T09:08:55.550Z,59.8999
2024-05-09T09:09:58.154Z,59.8421
2024-05-09T09:11:00.761Z,59.8040
2024-05-09T09:12:03.327Z,59.7998
2024-05-09T09:13:05.932Z,59.8350
2024-05-09T09:14:08.484Z,59.9566
2024-05-09T09:15:11.076Z,59.9597
2024-05-09T09:16:13.750Z,59.8980
2024-05-09T09:17:16.338Z,59.8701
2024-05-09T09:18:19.292Z,59.8803
2024-05-09T09:19:21.581Z,59.8957
2024-05-09T09:20:29.402Z,59.8259
2024-05-09T09:21:26.773Z,59.8007
2024-05-09T09:22:29.164Z,59.8321
2024-05-09T09:23:31.880Z,59.8033
2024-05-09T09:24:34.373Z,59.7831
2024-05-09T09:25:36.920Z,59.7565
2024-05-09T09:26:39.503Z,59.7169
2024-05-09T09:27:42.167Z,59.7106
2024-05-09T09:28:44.669Z,59.7005
2024-05-09T09:29:47.293Z,59.6282
2024-05-09T09:30:49.905Z,59.7882
2024-05-09T09:31:52.445Z,59.8266
2024-05-09T09:32:55.123Z,59.7924
2024-05-09T09:33:57.936Z,59.7662
2024-05-09T09:35:00.237Z,59.8227
2024-05-09T09:36:02.753Z,59.8558
2024-05-09T09:37:05.404Z,59.7990
2024-05-09T09:38:07.992Z,59.7757
2024-05-09T09:39:10.560Z,59.8023
2024-05-09T09:40:13.468Z,59.8044
2024-05-09T09:41:15.758Z,59.7818
2024-05-09T09:42:18.265Z,59.8190
2024-05-09T09:43:21.177Z,59.8404
2024-05-09T09:44:23.412Z,59.8345
2024-05-09T09:45:26.053Z,59.8927
2024-05-09T09:46:28.740Z,59.9069
2024-05-09T09:47:31.300Z,59.9245
2024-05-09T09:48:34.080Z,59.8796
2024-05-09T09:49:36.411Z,59.9199
2024-05-09T09:50:38.965Z,59.9416
2024-05-09T09:51:41.608Z,59.9380
2024-05-09T09:52:44.123Z,59.9758
2024-05-09T09:53:46.748Z,60.0119
2024-05-09T09:54:49.381Z,60.0159
2024-05-09T09:55:51.897Z,60.0218
2024-05-09T09:56:54.453Z,60.0139
2024-05-09T09:57:57.112Z,60.0215
2024-05-09T09:58:59.621Z,60.0260
2024-05-09T10:00:03.119Z,60.0384
2024-05-09T10:01:04.986Z,60.0136
2024-05-09T10:02:07.600Z,60.0487
2024-05-09T10:03:10.133Z,60.0551
2024-05-09T10:04:12.692Z,60.0472
2024-05-09T10:05:15.160Z,60.0247
2024-05-09T10:06:17.681Z,59.9884
2024-05-09T10:07:20.354Z,59.9953
2024-05-09T10:08:22.858Z,59.9586
2024-05-09T10:09:25.473Z,59.9649
2024-05-09T10:10:32.317Z,59.9559
2024-05-09T10:11:31.679Z,60.0091
2024-05-09T10:12:33.267Z,60.0169
2024-05-09T10:13:35.863Z,60.0273
2024-05-09T10:14:38.342Z,60.0677
2024-05-09T10:15:40.966Z,60.0574
2024-05-09T10:16:43.528Z,60.0349
2024-05-09T10:17:46.150Z,60.0078
2024-05-09T10:18:48.861Z,59.9668
2024-05-09T10:19:51.389Z,60.0074
2024-05-09T10:20:53.826Z,60.0007
2024-05-09T10:21:56.427Z,59.9473
2024-05-09T10:22:59.055Z,59.9445
2024-05-09T10:24:01.583Z,59.9325
2024-05-09T10:25:05.108Z,59.8978
2024-05-09T10:26:06.748Z,59.9092
2024-05-09T10:27:09.400Z,59.9237
2024-05-09T10:28:12.081Z,59.9232
2024-05-09T10:29:14.517Z,59.9416
2024-05-09T10:30:25.816Z,59.9982
2024-05-09T10:31:19.683Z,60.0587
2024-05-09T10:32:22.363Z,60.0879
2024-05-09T10:33:24.987Z,60.1101
2024-05-09T10:34:27.632Z,60.0507
2024-05-09T10:35:30.023Z,60.0204
2024-05-09T10:36:32.644Z,60.0153
2024-05-09T10:37:35.236Z,59.9550
2024-05-09T10:38:37.748Z,59.9683
2024-05-09T10:39:40.359Z,60.0183
2024-05-09T10:40:42.964Z,59.9986
2024-05-09T10:41:45.493Z,60.0467
2024-05-09T10:42:48.183Z,60.0354
2024-05-09T10:43:50.705Z,60.0230
2024-05-09T10:44:53.338Z,60.0250
2024-05-09T10:45:55.856Z,59.9991
2024-05-09T10:46:58.437Z,60.0181
2024-05-09T10:48:01.163Z,60.0138
2024-05-09T10:49:06.294Z,60.0147
2024-05-09T10:50:12.710Z,60.0234
2024-05-09T10:51:08.744Z,60.0629
2024-05-09T10:52:11.350Z,60.0731
2024-05-09T10:53:13.895Z,60.0456
2024-05-09T10:54:16.509Z,60.0101
2024-05-09T10:55:19.285Z,60.0017
2024-05-09T10:56:21.663Z,59.9989
2024-05-09T10:57:24.230Z,60.0102
2024-05-09T10:58:26.805Z,60.0130
2024-05-09T10:59:29.400Z,59.9993
2024-05-09T11:00:35.863Z,60.0040
2024-05-09T11:01:34.639Z,60.0188
2024-05-09T11:02:37.291Z,60.0141
2024-05-09T11:03:40.127Z,60.0150
2024-05-09T11:04:42.485Z,60.0381
2024-05-09T11:05:45.094Z,60.0561
2024-05-09T11:06:47.532Z,60.0670
2024-05-09T11:07:50.071Z,60.0586
2024-05-09T11:08:52.649Z,60.0530
2024-05-09T11:09:55.301Z,60.0795
2024-05-09T11:10:57.855Z,60.0862
2024-05-09T11:12:00.463Z,60.0858
2024-05-09T11:13:03.048Z,60.1049
2024-05-09T11:14:05.565Z,60.0458
2024-05-09T11:15:08.180Z,60.0496
2024-05-09T11:16:10.801Z,60.0817
2024-05-09T11:17:13.322Z,60.1002
2024-05-09T11:18:16.063Z,60.1037
2024-05-09T11:19:18.673Z,60.1098
2024-05-09T11:20:26.942Z,60.1254
2024-05-09T11:21:23.652Z,60.1222
2024-05-09T11:22:26.289Z,60.1026
2024-05-09T11:23:28.804Z,60.1056
2024-05-09T11:24:31.407Z,60.1266
2024-05-09T11:25:33.975Z,60.1202
2024-05-09T11:26:36.612Z,60.1035
2024-05-09T11:27:39.184Z,60.0999
2024-05-09T11:28:41.734Z,60.1030
2024-05-09T11:29:44.315Z,60.0989
2024-05-09T11:30:46.983Z,60.0839
2024-05-09T11:31:49.668Z,60.0680
2024-05-09T11:32:52.298Z,60.0667
2024-05-09T11:33:54.846Z,60.0696
2024-05-09T11:34:57.244Z,60.0737
2024-05-09T11:35:59.823Z,60.1016
2024-05-09T11:37:02.494Z,60.1123
2024-05-09T11:38:04.995Z,60.0954
2024-05-09T11:39:07.593Z,60.0951
2024-05-09T11:40:16.814Z,60.0924
2024-05-09T11:41:12.774Z,60.1089
2024-05-09T11:42:15.326Z,60.1106
2024-05-09T11:43:18.053Z,60.1005
2024-05-09T11:44:20.523Z,60.0788
2024-05-09T11:45:23.148Z,60.0735
2024-05-09T11:46:25.819Z,60.0857
2024-05-09T11:47:28.289Z,60.1250
2024-05-09T11:48:31.148Z,60.1472
2024-05-09T11:49:33.563Z,60.1331
2024-05-09T11:50:36.444Z,60.1182
2024-05-09T11:51:38.637Z,60.1072
2024-05-09T11:52:41.164Z,60.1282
2024-05-09T11:53:43.762Z,60.1369
2024-05-09T11:54:46.381Z,60.1199
2024-05-09T11:55:48.946Z,60.1264
2024-05-09T11:56:51.604Z,60.1377
2024-05-09T11:57:54.097Z,60.1567
2024-05-09T11:58:56.664Z,60.1227
2024-05-09T11:59:59.249Z,60.1142
2024-05-09T12:01:01.979Z,60.1269
2024-05-09T12:02:04.589Z,60.1363
2024-05-09T12:03:07.099Z,60.1708
2024-05-09T12:04:09.699Z,60.1613
2024-05-09T12:05:12.246Z,60.1751
2024-05-09T12:06:14.769Z,60.1747
2024-05-09T12:07:17.439Z,60.1750
2024-05-09T12:08:19.934Z,60.1978
2024-05-09T12:09:22.494Z,60.1981
2024-05-09T12:10:32.125Z,60.1974
2024-05-09T12:11:27.703Z,60.2269
2024-05-09T12:12:30.302Z,60.2262
2024-05-09T12:13:32.957Z,60.2097
2024-05-09T12:14:35.447Z,60.1957
2024-05-09T12:15:38.879Z,60.2013
2024-05-09T12:16:40.653Z,60.1789
2024-05-09T12:17:43.288Z,60.2234
2024-05-09T12:18:45.904Z,60.2051
2024-05-09T12:19:48.419Z,60.1896
2024-05-09T12:20:50.949Z,60.1917
2024-05-09T12:21:53.553Z,60.1822
2024-05-09T12:22:56.099Z,60.1646
2024-05-09T12:23:58.679Z,60.1719
2024-05-09T12:25:01.316Z,60.1783
2024-05-09T12:26:03.868Z,60.1872
2024-05-09T12:27:06.457Z,60.2003
2024-05-09T12:28:09.198Z,60.1936
2024-05-09T12:29:11.622Z,60.1623
2024-05-09T12:30:20.729Z,60.1691
2024-05-09T12:31:16.807Z,60.2028
2024-05-09T12:32:19.420Z,60.2140
2024-05-09T12:33:22.144Z,60.1975
2024-05-09T12:34:24.574Z,60.2246
2024-05-09T12:35:27.152Z,60.2374
2024-05-09T12:36:29.702Z,60.2164
2024-05-09T12:37:32.313Z,60.2257
2024-05-09T12:38:34.915Z,60.2742
2024-05-09T12:39:37.538Z,60.2907